Terminal Aerodrome Forecast
Issued by NWS Shreveport, LA

Home | Current Version | Previous Version | Text Only | Print | Product List | Glossary On
Versions: 1 2 3 4 5 6 7 8 9 10 11 12 13 14 15
000
FTUS44 KSHV 310500
TAFGGG
TAF
KGGG 310534Z 3106/0106 00000KT P6SM SKC
     FM311200 34010KT P6SM SKC
     FM311600 35011G18KT P6SM SCT060
     FM010000 35005KT P6SM SKC=

USA.gov is the U.S. government's official web portal to all federal, state and local government web resources and services.